createdAt,value
2022-08-23T00:00:32.026Z,18.43
2022-08-23T00:01:32.024Z,18.35
2022-08-23T00:02:32.058Z,18.41
2022-08-23T00:03:32.033Z,18.22
2022-08-23T00:04:35.256Z,18.18
2022-08-23T00:05:32.020Z,18.18
2022-08-23T00:06:32.011Z,18.11
2022-08-23T00:07:36.362Z,18.18
2022-08-23T00:08:32.007Z,18.26
2022-08-23T00:09:32.005Z,18.16
2022-08-23T00:10:32.012Z,18.20
2022-08-23T00:11:32.006Z,18.16
2022-08-23T00:12:31.999Z,18.15
2022-08-23T00:13:47.479Z,18.18
2022-08-23T00:14:31.991Z,18.15
2022-08-23T00:15:31.989Z,18.18
2022-08-23T00:16:31.987Z,18.28
2022-08-23T00:17:34.345Z,18.23
2022-08-23T00:18:31.979Z,18.25
2022-08-23T00:19:31.976Z,18.22
2022-08-23T00:20:31.973Z,18.23
2022-08-23T00:21:31.967Z,18.20
2022-08-23T00:22:31.965Z,18.41
2022-08-23T00:23:31.965Z,18.35
2022-08-23T00:24:31.964Z,18.33
2022-08-23T00:25:31.962Z,18.45
2022-08-23T00:26:31.962Z,18.35
2022-08-23T00:27:31.957Z,18.31
2022-08-23T00:28:31.951Z,18.33
2022-08-23T00:29:31.986Z,18.38
2022-08-23T00:30:31.949Z,18.31
2022-08-23T00:31:31.994Z,18.40
2022-08-23T00:32:31.944Z,18.44
2022-08-23T00:33:31.938Z,18.49
2022-08-23T00:34:31.938Z,18.43
2022-08-23T00:35:31.934Z,18.40
2022-08-23T00:36:31.934Z,18.50
2022-08-23T00:37:31.933Z,18.47
2022-08-23T00:38:34.965Z,18.44
2022-08-23T00:39:31.947Z,18.47
2022-08-23T00:40:31.921Z,18.52
2022-08-23T00:41:31.919Z,18.43
2022-08-23T00:42:31.911Z,18.35
2022-08-23T00:43:31.921Z,18.44
2022-08-23T00:44:31.910Z,18.49
2022-08-23T00:45:31.911Z,18.40
2022-08-23T00:46:31.903Z,18.43
2022-08-23T00:47:31.899Z,18.40
2022-08-23T00:48:31.899Z,18.35
2022-08-23T00:49:31.896Z,18.47
2022-08-23T00:50:31.939Z,18.35
2022-08-23T00:51:31.890Z,18.38
2022-08-23T00:52:31.894Z,18.45
2022-08-23T00:53:31.885Z,18.35
2022-08-23T00:54:31.881Z,18.37
2022-08-23T00:55:31.882Z,18.40
2022-08-23T00:56:31.875Z,18.33
2022-08-23T00:57:31.875Z,18.34
2022-08-23T00:58:31.885Z,18.40
2022-08-23T00:59:31.888Z,18.33
2022-08-23T01:00:31.892Z,18.35
2022-08-23T01:01:31.978Z,18.37
2022-08-23T01:02:31.915Z,18.34
2022-08-23T01:03:38.634Z,18.43
2022-08-23T01:04:31.852Z,18.37
2022-08-23T01:05:31.852Z,18.40
2022-08-23T01:06:31.847Z,18.41
2022-08-23T01:07:31.846Z,18.37
2022-08-23T01:08:31.848Z,18.41
2022-08-23T01:09:31.842Z,18.37
2022-08-23T01:10:31.852Z,18.34
2022-08-23T01:11:31.846Z,18.37
2022-08-23T01:12:32.825Z,18.35
2022-08-23T01:13:31.882Z,18.38
2022-08-23T01:14:31.845Z,18.28
2022-08-23T01:15:31.853Z,18.37
2022-08-23T01:16:31.845Z,18.29
2022-08-23T01:17:31.850Z,18.33
2022-08-23T01:18:31.849Z,18.28
2022-08-23T01:19:32.004Z,18.40
2022-08-23T01:20:31.849Z,18.26
2022-08-23T01:21:31.810Z,18.26
2022-08-23T01:22:31.804Z,18.34
2022-08-23T01:23:31.803Z,18.37
2022-08-23T01:24:43.977Z,18.33
2022-08-23T01:25:31.793Z,18.31
2022-08-23T01:26:31.792Z,18.26
2022-08-23T01:27:32.162Z,18.29
2022-08-23T01:28:31.787Z,18.25
2022-08-23T01:29:31.787Z,18.16
2022-08-23T01:30:31.782Z,18.20
2022-08-23T01:31:31.779Z,18.18
2022-08-23T01:32:31.777Z,18.18
2022-08-23T01:33:31.774Z,18.16
2022-08-23T01:34:34.635Z,18.19
2022-08-23T01:35:31.773Z,18.23
2022-08-23T01:36:31.768Z,18.16
2022-08-23T01:37:31.761Z,18.16
2022-08-23T01:38:32.869Z,18.23
2022-08-23T01:39:31.756Z,18.15
2022-08-23T01:40:31.756Z,18.25
2022-08-23T01:41:31.749Z,18.20
2022-08-23T01:42:31.777Z,18.11
2022-08-23T01:43:31.747Z,18.25
2022-08-23T01:44:31.741Z,18.16
2022-08-23T01:45:31.741Z,18.20
2022-08-23T01:46:31.736Z,18.13
2022-08-23T01:47:31.734Z,18.08
2022-08-23T01:48:31.731Z,18.08
2022-08-23T01:49:31.729Z,18.11
2022-08-23T01:50:31.791Z,18.08
2022-08-23T01:51:31.727Z,18.08
2022-08-23T01:52:31.719Z,18.11
2022-08-23T01:53:31.717Z,18.16
2022-08-23T01:54:31.713Z,18.18
2022-08-23T01:55:31.735Z,18.11
2022-08-23T01:56:38.723Z,18.22
2022-08-23T01:57:31.705Z,18.18
2022-08-23T01:58:31.702Z,18.16
2022-08-23T01:59:31.699Z,18.08
2022-08-23T02:00:31.699Z,18.25
2022-08-23T02:01:31.744Z,18.16
2022-08-23T02:02:31.701Z,18.18
2022-08-23T02:03:31.688Z,18.28
2022-08-23T02:04:31.688Z,18.15
2022-08-23T02:05:31.685Z,18.16
2022-08-23T02:06:31.679Z,18.18
2022-08-23T02:07:31.677Z,18.28
2022-08-23T02:08:31.678Z,18.16
2022-08-23T02:09:31.669Z,18.13
2022-08-23T02:10:31.670Z,18.16
2022-08-23T02:11:31.665Z,18.20
2022-08-23T02:12:31.664Z,18.08
2022-08-23T02:13:31.657Z,18.11
2022-08-23T02:14:31.655Z,18.18
2022-08-23T02:15:31.654Z,18.13
2022-08-23T02:16:31.654Z,18.08
2022-08-23T02:17:31.648Z,18.13
2022-08-23T02:18:31.645Z,18.10
2022-08-23T02:19:31.644Z,18.05
2022-08-23T02:20:31.640Z,18.07
2022-08-23T02:21:31.638Z,18.04
2022-08-23T02:22:31.636Z,18.08
2022-08-23T02:23:31.631Z,18.05
2022-08-23T02:24:31.853Z,18.07
2022-08-23T02:25:31.625Z,18.03
2022-08-23T02:26:31.623Z,18.13
2022-08-23T02:27:31.620Z,18.07
2022-08-23T02:28:31.615Z,18.03
2022-08-23T02:29:31.613Z,18.01
2022-08-23T02:30:31.611Z,18.03
2022-08-23T02:31:31.607Z,18.03
2022-08-23T02:32:31.603Z,18.00
2022-08-23T02:35:05.658Z,18.11
2022-08-23T02:36:03.243Z,18.04
2022-08-23T02:38:07.232Z,18.03
2022-08-23T02:39:07.217Z,18.01
2022-08-23T02:41:11.206Z,18.04
2022-08-23T02:42:11.754Z,18.13
2022-08-23T02:44:15.672Z,18.08
2022-08-23T02:45:15.661Z,18.03
2022-08-23T02:46:15.659Z,18.10
2022-08-23T02:47:22.829Z,18.05
2022-08-23T02:49:20.336Z,18.07
2022-08-23T02:50:20.106Z,18.08
2022-08-23T02:52:23.906Z,18.08
2022-08-23T02:53:23.887Z,17.98
2022-08-23T02:55:28.388Z,18.05
2022-08-23T02:56:28.375Z,18.05
2022-08-23T02:57:28.367Z,18.11
2022-08-23T02:58:28.374Z,18.05
2022-08-23T02:59:28.365Z,17.98
2022-08-23T03:00:28.374Z,18.07
2022-08-23T03:01:28.372Z,18.08
2022-08-23T03:02:28.390Z,18.10
2022-08-23T03:03:28.352Z,18.01
2022-08-23T03:04:28.349Z,18.05
2022-08-23T03:05:28.346Z,18.10
2022-08-23T03:06:28.346Z,18.01
2022-08-23T03:07:28.341Z,18.00
2022-08-23T03:08:28.336Z,17.98
2022-08-23T03:09:28.351Z,18.08
2022-08-23T03:10:28.347Z,18.03
2022-08-23T03:11:28.366Z,18.04
2022-08-23T03:12:28.352Z,18.00
2022-08-23T03:13:28.322Z,18.00
2022-08-23T03:14:28.319Z,17.98
2022-08-23T03:15:28.321Z,18.04
2022-08-23T03:16:28.312Z,18.01
2022-08-23T03:17:28.308Z,17.94
2022-08-23T03:18:28.307Z,17.95
2022-08-23T03:19:28.303Z,17.90
2022-08-23T03:20:28.344Z,17.95
2022-08-23T03:21:28.327Z,17.89
2022-08-23T03:22:28.313Z,17.86
2022-08-23T03:23:28.293Z,17.92
2022-08-23T03:24:28.294Z,17.87
2022-08-23T03:25:28.284Z,17.82
2022-08-23T03:26:28.282Z,17.82
2022-08-23T03:27:28.277Z,17.87
2022-08-23T03:28:28.275Z,17.74
2022-08-23T03:29:28.274Z,17.86
2022-08-23T03:30:28.266Z,17.89
2022-08-23T03:31:29.287Z,17.89
2022-08-23T03:32:28.264Z,17.87
2022-08-23T03:33:28.257Z,17.79
2022-08-23T03:34:28.252Z,17.82
2022-08-23T03:35:28.252Z,17.83
2022-08-23T03:36:28.489Z,17.83
2022-08-23T03:37:28.244Z,17.80
2022-08-23T03:38:28.243Z,17.83
2022-08-23T03:39:28.241Z,17.82
2022-08-23T03:40:28.234Z,17.82
2022-08-23T03:41:28.234Z,17.90
2022-08-23T03:42:28.572Z,17.82
2022-08-23T03:43:28.226Z,17.82
2022-08-23T03:44:28.224Z,17.89
2022-08-23T03:45:28.221Z,17.89
2022-08-23T03:46:30.969Z,17.90
2022-08-23T03:47:28.216Z,17.89
2022-08-23T03:48:28.212Z,17.89
2022-08-23T03:49:28.209Z,17.89
2022-08-23T03:50:28.221Z,17.89
2022-08-23T03:51:28.201Z,17.86
2022-08-23T03:52:28.198Z,17.92
2022-08-23T03:53:28.197Z,17.95
2022-08-23T03:54:28.194Z,17.90
2022-08-23T03:55:28.193Z,17.98
2022-08-23T03:56:28.189Z,18.00
2022-08-23T03:57:28.193Z,17.95
2022-08-23T03:58:28.181Z,17.95
2022-08-23T03:59:28.177Z,17.94
2022-08-23T04:00:28.174Z,17.98
2022-08-23T04:01:28.936Z,17.97
2022-08-23T04:02:28.169Z,18.00
2022-08-23T04:03:28.167Z,17.92
2022-08-23T04:04:28.164Z,17.89
2022-08-23T04:05:28.159Z,17.97
2022-08-23T04:06:28.156Z,17.90
2022-08-23T04:07:28.152Z,17.92
2022-08-23T04:08:33.339Z,17.92
2022-08-23T04:09:28.148Z,17.95
2022-08-23T04:10:28.144Z,17.95
2022-08-23T04:11:28.141Z,17.89
2022-08-23T04:12:28.142Z,17.95
2022-08-23T04:13:28.136Z,17.86
2022-08-23T04:14:28.133Z,17.79
2022-08-23T04:15:28.129Z,17.80
2022-08-23T04:16:28.126Z,17.80
2022-08-23T04:17:32.078Z,17.83
2022-08-23T04:18:28.121Z,17.79
2022-08-23T04:19:28.114Z,17.72
2022-08-23T04:20:28.114Z,17.72
2022-08-23T04:21:28.111Z,17.71
2022-08-23T04:22:28.106Z,17.63
2022-08-23T04:23:28.104Z,17.64
2022-08-23T04:24:28.099Z,17.76
2022-08-23T04:25:34.654Z,17.78
2022-08-23T04:26:30.283Z,17.74
2022-08-23T04:27:28.090Z,17.78
2022-08-23T04:28:28.090Z,17.71
2022-08-23T04:29:33.954Z,17.82
2022-08-23T04:30:28.079Z,17.79
2022-08-23T04:31:28.078Z,17.86
2022-08-23T04:32:28.420Z,17.79
2022-08-23T04:33:28.074Z,17.82
2022-08-23T04:34:28.705Z,17.83
2022-08-23T04:35:28.068Z,17.85
2022-08-23T04:36:28.062Z,17.83
2022-08-23T04:37:28.066Z,17.87
2022-08-23T04:38:28.058Z,17.85
2022-08-23T04:39:28.056Z,17.92
2022-08-23T04:40:28.073Z,17.89
2022-08-23T04:41:28.046Z,17.92
2022-08-23T04:42:28.043Z,17.94
2022-08-23T04:43:28.042Z,17.79
2022-08-23T04:44:28.038Z,17.82
2022-08-23T04:45:28.036Z,17.83
2022-08-23T04:46:28.038Z,17.85
2022-08-23T04:47:28.032Z,17.79
2022-08-23T04:48:28.025Z,17.86
2022-08-23T04:49:28.020Z,17.82
2022-08-23T04:50:28.021Z,17.82
2022-08-23T04:51:28.015Z,17.83
2022-08-23T04:52:28.013Z,17.80
2022-08-23T04:53:28.010Z,17.78
2022-08-23T04:54:28.007Z,17.80
2022-08-23T04:55:28.005Z,17.78
2022-08-23T04:56:28.000Z,17.92
2022-08-23T04:57:27.997Z,17.89
2022-08-23T04:58:27.996Z,17.94
2022-08-23T04:59:27.991Z,17.92
2022-08-23T05:00:28.224Z,17.90
2022-08-23T05:01:28.047Z,17.90
2022-08-23T05:02:27.982Z,17.98
2022-08-23T05:03:27.983Z,17.98
2022-08-23T05:04:27.986Z,18.00
2022-08-23T05:05:27.980Z,18.03
2022-08-23T05:06:27.971Z,17.98
2022-08-23T05:07:33.802Z,17.95
2022-08-23T05:08:27.965Z,18.05
2022-08-23T05:09:27.965Z,18.05
2022-08-23T05:10:27.955Z,18.10
2022-08-23T05:11:27.954Z,18.05
2022-08-23T05:12:27.951Z,18.11
2022-08-23T05:13:27.952Z,18.10
2022-08-23T05:14:27.947Z,18.08
2022-08-23T05:15:27.948Z,18.10
2022-08-23T05:16:27.940Z,18.20
2022-08-23T05:17:27.935Z,18.13
2022-08-23T05:18:27.934Z,18.18
2022-08-23T05:19:27.935Z,18.18
2022-08-23T05:20:27.929Z,18.18
2022-08-23T05:21:27.926Z,18.18
2022-08-23T05:22:27.919Z,18.16
2022-08-23T05:23:31.811Z,18.18
2022-08-23T05:24:27.919Z,18.31
2022-08-23T05:25:27.911Z,18.26
2022-08-23T05:26:27.911Z,18.28
2022-08-23T05:27:27.910Z,18.23
2022-08-23T05:28:27.902Z,18.22
2022-08-23T05:29:27.904Z,18.28
2022-08-23T05:30:27.898Z,18.28
2022-08-23T05:31:27.895Z,18.25
2022-08-23T05:32:32.819Z,18.34
2022-08-23T05:33:27.889Z,18.38
2022-08-23T05:34:27.885Z,18.38
2022-08-23T05:35:27.881Z,18.41
2022-08-23T05:36:27.881Z,18.41
2022-08-23T05:37:27.878Z,18.43
2022-08-23T05:38:27.872Z,18.44
2022-08-23T05:39:36.111Z,18.44
2022-08-23T05:40:27.866Z,18.55
2022-08-23T05:41:37.834Z,18.49
2022-08-23T05:42:27.861Z,18.53
2022-08-23T05:43:27.860Z,18.56
2022-08-23T05:44:27.856Z,18.60
2022-08-23T05:45:27.854Z,18.60
2022-08-23T05:46:28.352Z,18.62
2022-08-23T05:47:27.847Z,18.60
2022-08-23T05:48:27.845Z,18.66
2022-08-23T05:49:27.842Z,18.66
2022-08-23T05:50:27.838Z,18.68
2022-08-23T05:51:27.835Z,18.73
2022-08-23T05:52:27.835Z,18.75
2022-08-23T05:53:27.831Z,18.89
2022-08-23T05:54:27.827Z,18.83
2022-08-23T05:55:35.054Z,18.80
2022-08-23T05:56:27.819Z,18.98
2022-08-23T05:57:27.821Z,18.81
2022-08-23T05:58:27.814Z,18.90
2022-08-23T05:59:27.813Z,18.99
2022-08-23T06:00:38.126Z,19.12
2022-08-23T06:01:27.853Z,19.24
2022-08-23T06:02:27.803Z,19.30
2022-08-23T06:03:27.802Z,19.41
2022-08-23T06:04:27.801Z,19.47
2022-08-23T06:05:27.795Z,19.54
2022-08-23T06:06:37.121Z,19.58
2022-08-23T06:07:27.792Z,19.58
2022-08-23T06:08:27.788Z,19.69
2022-08-23T06:09:27.783Z,19.69
2022-08-23T06:10:27.819Z,19.85
2022-08-23T06:11:27.783Z,19.85
2022-08-23T06:12:27.774Z,19.79
2022-08-23T06:13:27.776Z,19.86
2022-08-23T06:14:27.829Z,19.89
2022-08-23T06:15:27.768Z,19.96
2022-08-23T06:16:27.769Z,20.14
2022-08-23T06:17:27.766Z,20.19
2022-08-23T06:18:27.762Z,20.25
2022-08-23T06:19:27.760Z,20.34
2022-08-23T06:20:27.846Z,20.29
2022-08-23T06:21:27.756Z,20.18
2022-08-23T06:22:27.754Z,20.13
2022-08-23T06:23:27.752Z,19.95
2022-08-23T06:24:27.752Z,19.71
2022-08-23T06:25:27.748Z,19.70
2022-08-23T06:26:27.746Z,19.85
2022-08-23T06:27:27.743Z,19.84
2022-08-23T06:28:27.770Z,19.69
2022-08-23T06:29:27.782Z,19.85
2022-08-23T06:30:27.889Z,19.91
2022-08-23T06:31:27.759Z,19.88
2022-08-23T06:32:27.787Z,19.88
2022-08-23T06:33:27.775Z,19.86
2022-08-23T06:34:27.730Z,19.77
2022-08-23T06:35:37.954Z,19.74
2022-08-23T06:36:27.725Z,19.70
2022-08-23T06:37:27.722Z,19.74
2022-08-23T06:38:27.718Z,19.81
2022-08-23T06:39:27.717Z,19.85
2022-08-23T06:40:27.746Z,19.84
2022-08-23T06:41:27.712Z,19.76
2022-08-23T06:42:38.410Z,19.79
2022-08-23T06:43:27.727Z,19.73
2022-08-23T06:44:27.707Z,19.82
2022-08-23T06:45:33.725Z,19.88
2022-08-23T06:46:28.269Z,19.91
2022-08-23T06:47:27.700Z,19.89
2022-08-23T06:48:27.704Z,19.92
2022-08-23T06:49:27.708Z,19.85
2022-08-23T06:50:32.082Z,19.99
2022-08-23T06:51:27.693Z,19.82
2022-08-23T06:52:27.762Z,19.85
2022-08-23T06:53:27.691Z,19.89
2022-08-23T06:54:27.689Z,20.00
2022-08-23T06:55:27.685Z,19.99
2022-08-23T06:56:27.681Z,20.02
2022-08-23T06:57:27.680Z,20.06
2022-08-23T06:58:27.678Z,20.02
2022-08-23T06:59:27.684Z,19.99
2022-08-23T07:00:27.789Z,19.96
2022-08-23T07:01:45.334Z,19.81
2022-08-23T07:02:27.704Z,19.94
2022-08-23T07:03:27.670Z,19.95
2022-08-23T07:04:27.666Z,19.86
2022-08-23T07:05:27.670Z,19.92
2022-08-23T07:06:27.663Z,19.85
2022-08-23T07:07:37.532Z,19.88
2022-08-23T07:08:27.659Z,19.95
2022-08-23T07:09:27.661Z,19.88
2022-08-23T07:10:27.653Z,19.85
2022-08-23T07:11:27.653Z,19.85
2022-08-23T07:12:27.654Z,19.86
2022-08-23T07:13:27.652Z,19.84
2022-08-23T07:14:27.648Z,19.77
2022-08-23T07:15:27.646Z,19.92
2022-08-23T07:16:27.736Z,19.92
2022-08-23T07:17:27.647Z,20.04
2022-08-23T07:18:27.639Z,20.07
2022-08-23T07:19:29.047Z,20.06
2022-08-23T07:20:27.637Z,20.18
2022-08-23T07:21:27.636Z,20.13
2022-08-23T07:22:27.635Z,20.10
2022-08-23T07:23:27.632Z,20.11
2022-08-23T07:24:32.342Z,20.22
2022-08-23T07:25:27.632Z,20.21
2022-08-23T07:26:27.627Z,20.19
2022-08-23T07:27:27.626Z,20.28
2022-08-23T07:28:27.625Z,20.32
2022-08-23T07:29:27.629Z,20.39
2022-08-23T07:30:27.631Z,20.56
2022-08-23T07:31:27.647Z,20.55
2022-08-23T07:32:27.620Z,20.52
2022-08-23T07:33:27.620Z,20.50
2022-08-23T07:34:27.612Z,20.66
2022-08-23T07:35:27.605Z,20.74
2022-08-23T07:36:27.982Z,20.62
2022-08-23T07:37:27.607Z,20.65
2022-08-23T07:38:28.966Z,20.70
2022-08-23T07:39:27.601Z,20.81
2022-08-23T07:40:27.821Z,20.92
2022-08-23T07:41:27.601Z,20.87
2022-08-23T07:42:27.600Z,20.97
2022-08-23T07:43:27.600Z,21.06
2022-08-23T07:44:27.605Z,20.92
2022-08-23T07:45:27.593Z,20.88
2022-08-23T07:46:27.606Z,20.87
2022-08-23T07:47:27.591Z,20.81
2022-08-23T07:48:52.576Z,20.75
2022-08-23T07:49:29.356Z,20.90
2022-08-23T07:50:30.374Z,21.11
2022-08-23T07:51:27.586Z,21.25
2022-08-23T07:52:27.590Z,21.37
2022-08-23T07:53:37.818Z,21.48
2022-08-23T07:54:27.581Z,21.27
2022-08-23T07:55:27.578Z,21.21
2022-08-23T07:56:27.578Z,21.03
2022-08-23T07:57:27.578Z,21.06
2022-08-23T07:58:27.574Z,21.22
2022-08-23T07:59:30.419Z,21.25
2022-08-23T08:00:27.575Z,21.39
2022-08-23T08:01:27.601Z,21.48
2022-08-23T08:02:27.609Z,21.66
2022-08-23T08:03:27.569Z,21.80
2022-08-23T08:04:27.568Z,21.91
2022-08-23T08:05:27.570Z,21.93
2022-08-23T08:06:27.567Z,22.07
2022-08-23T08:07:27.598Z,22.17
2022-08-23T08:08:27.566Z,21.98
2022-08-23T08:09:27.564Z,21.91
2022-08-23T08:10:27.560Z,21.95
2022-08-23T08:11:32.161Z,21.85
2022-08-23T08:12:27.562Z,21.83
2022-08-23T08:13:27.563Z,21.96
2022-08-23T08:14:27.559Z,22.04
2022-08-23T08:15:27.558Z,22.28
2022-08-23T08:16:27.575Z,22.43
2022-08-23T08:17:27.825Z,22.41
2022-08-23T08:18:27.555Z,22.57
2022-08-23T08:19:27.555Z,22.57
2022-08-23T08:20:27.559Z,22.38
2022-08-23T08:21:27.555Z,22.50
2022-08-23T08:22:27.553Z,22.62
2022-08-23T08:23:27.552Z,22.73
2022-08-23T08:24:27.558Z,22.78
2022-08-23T08:25:27.553Z,22.84
2022-08-23T08:26:27.554Z,22.73
2022-08-23T08:27:27.550Z,22.75
2022-08-23T08:28:27.550Z,22.72
2022-08-23T08:29:27.553Z,22.54
2022-08-23T08:30:27.551Z,22.65
2022-08-23T08:31:27.681Z,22.54
2022-08-23T08:32:27.549Z,22.43
2022-08-23T08:33:30.796Z,22.02
2022-08-23T08:34:27.544Z,21.96
2022-08-23T08:35:27.542Z,21.70
2022-08-23T08:36:27.550Z,21.89
2022-08-23T08:37:27.571Z,21.99
2022-08-23T08:38:28.875Z,22.10
2022-08-23T08:39:27.547Z,22.29
2022-08-23T08:40:27.549Z,22.47
2022-08-23T08:41:27.546Z,22.51
2022-08-23T08:42:27.542Z,22.65
2022-08-23T08:43:27.550Z,22.72
2022-08-23T08:44:27.543Z,22.83
2022-08-23T08:45:27.542Z,22.72
2022-08-23T08:46:27.567Z,22.69
2022-08-23T08:47:27.775Z,22.90
2022-08-23T08:48:27.539Z,23.08
2022-08-23T08:49:27.544Z,23.21
2022-08-23T08:50:27.543Z,23.24
2022-08-23T08:51:27.538Z,23.27
2022-08-23T08:52:29.735Z,23.17
2022-08-23T08:53:27.541Z,23.20
2022-08-23T08:54:27.540Z,23.08
2022-08-23T08:55:27.538Z,22.70
2022-08-23T08:56:29.787Z,22.54
2022-08-23T08:57:27.921Z,22.54
2022-08-23T08:58:27.535Z,22.51
2022-08-23T08:59:27.536Z,22.44
2022-08-23T09:00:27.538Z,22.62
2022-08-23T09:01:27.563Z,22.73
2022-08-23T09:02:32.593Z,22.91
2022-08-23T09:03:27.578Z,23.15
2022-08-23T09:04:27.536Z,23.27
2022-08-23T09:05:27.540Z,23.09
2022-08-23T09:06:27.539Z,23.13
2022-08-23T09:07:31.068Z,23.24
2022-08-23T09:08:27.590Z,23.20
2022-08-23T09:09:27.536Z,23.32
2022-08-23T09:10:27.540Z,23.21
2022-08-23T09:11:27.535Z,23.17
2022-08-23T09:12:27.536Z,22.91
2022-08-23T09:13:27.535Z,22.84
2022-08-23T09:14:27.534Z,22.69
2022-08-23T09:15:27.536Z,22.55
2022-08-23T09:16:28.784Z,22.63
2022-08-23T09:17:27.538Z,22.69
2022-08-23T09:18:27.534Z,22.75
2022-08-23T09:19:27.533Z,22.83
2022-08-23T09:20:31.046Z,22.98
2022-08-23T09:21:28.433Z,23.09
2022-08-23T09:22:27.532Z,23.10
2022-08-23T09:23:27.532Z,23.06
2022-08-23T09:24:27.532Z,23.21
2022-08-23T09:25:27.534Z,23.21
2022-08-23T09:26:27.542Z,23.31
2022-08-23T09:27:27.532Z,23.34
2022-08-23T09:28:27.533Z,23.41
2022-08-23T09:29:27.534Z,23.40
2022-08-23T09:30:27.531Z,23.43
2022-08-23T09:31:27.608Z,23.10
2022-08-23T09:32:27.531Z,23.06
2022-08-23T09:33:27.531Z,23.05
2022-08-23T09:34:27.530Z,22.96
2022-08-23T09:35:27.532Z,22.91
2022-08-23T09:36:27.531Z,22.93
2022-08-23T09:37:27.532Z,22.87
2022-08-23T09:38:27.526Z,22.94
2022-08-23T09:39:30.882Z,22.98
2022-08-23T09:40:27.531Z,23.05
2022-08-23T09:41:27.542Z,23.08
2022-08-23T09:42:27.530Z,23.08
2022-08-23T09:43:27.528Z,22.94
2022-08-23T09:44:27.532Z,22.94
2022-08-23T09:45:28.889Z,23.06
2022-08-23T09:46:27.597Z,23.18
2022-08-23T09:47:27.529Z,23.36
2022-08-23T09:48:31.094Z,23.56
2022-08-23T09:49:27.528Z,23.39
2022-08-23T09:50:27.526Z,23.39
2022-08-23T09:51:27.523Z,23.58
2022-08-23T09:52:27.525Z,23.61
2022-08-23T09:53:27.529Z,23.59
2022-08-23T09:54:27.526Z,23.59
2022-08-23T09:55:27.526Z,23.73
2022-08-23T09:56:27.523Z,23.81
2022-08-23T09:57:27.824Z,23.86
2022-08-23T09:58:27.527Z,23.91
2022-08-23T09:59:27.629Z,24.02
2022-08-23T10:00:27.536Z,23.99
2022-08-23T10:01:27.571Z,23.96
2022-08-23T10:02:27.585Z,24.02
2022-08-23T10:03:27.536Z,23.98
2022-08-23T10:04:27.721Z,23.95
2022-08-23T10:05:27.541Z,24.02
2022-08-23T10:06:27.524Z,23.98
2022-08-23T10:07:27.529Z,23.99
2022-08-23T10:08:27.528Z,24.14
2022-08-23T10:09:27.527Z,24.06
2022-08-23T10:10:27.520Z,23.96
2022-08-23T10:11:27.524Z,23.77
2022-08-23T10:12:27.524Z,23.77
2022-08-23T10:13:27.525Z,23.83
2022-08-23T10:14:30.063Z,23.86
2022-08-23T10:15:27.525Z,23.91
2022-08-23T10:16:27.556Z,23.83
2022-08-23T10:17:27.524Z,23.84
2022-08-23T10:18:27.539Z,23.92
2022-08-23T10:19:27.524Z,23.98
2022-08-23T10:20:27.537Z,24.03
2022-08-23T10:21:27.521Z,24.02
2022-08-23T10:22:27.522Z,23.98
2022-08-23T10:23:27.525Z,23.96
2022-08-23T10:24:27.527Z,23.91
2022-08-23T10:25:27.525Z,23.84
2022-08-23T10:26:27.526Z,23.74
2022-08-23T10:27:27.527Z,23.86
2022-08-23T10:28:27.526Z,23.78
2022-08-23T10:29:27.524Z,23.74
2022-08-23T10:30:27.524Z,23.76
2022-08-23T10:31:27.561Z,23.93
2022-08-23T10:32:27.526Z,23.99
2022-08-23T10:33:27.528Z,24.14
2022-08-23T10:34:29.910Z,24.21
2022-08-23T10:35:27.525Z,24.23
2022-08-23T10:36:27.526Z,24.26
2022-08-23T10:37:27.526Z,24.45
2022-08-23T10:38:27.526Z,24.53
2022-08-23T10:39:27.527Z,24.53
2022-08-23T10:40:27.565Z,24.55
2022-08-23T10:41:27.527Z,24.70
2022-08-23T10:42:27.528Z,24.88
2022-08-23T10:43:27.527Z,24.51
2022-08-23T10:44:27.543Z,24.24
2022-08-23T10:45:27.527Z,24.11
2022-08-23T10:46:27.560Z,24.13
2022-08-23T10:47:27.551Z,24.05
2022-08-23T10:48:27.530Z,24.11
2022-08-23T10:49:27.533Z,23.98
2022-08-23T10:50:27.531Z,23.96
2022-08-23T10:51:32.037Z,23.73
2022-08-23T10:52:27.533Z,23.74
2022-08-23T10:53:27.532Z,23.76
2022-08-23T10:54:27.533Z,23.95
2022-08-23T10:55:27.531Z,24.08
2022-08-23T10:56:27.534Z,24.28
2022-08-23T10:57:27.531Z,24.32
2022-08-23T10:58:27.537Z,24.47
2022-08-23T10:59:27.536Z,24.43
2022-08-23T11:00:27.533Z,24.60
2022-08-23T11:01:27.582Z,24.58
2022-08-23T11:02:27.572Z,24.61
2022-08-23T11:03:29.021Z,24.61
2022-08-23T11:04:27.536Z,24.61
2022-08-23T11:05:27.537Z,24.61
2022-08-23T11:06:27.537Z,24.40
2022-08-23T11:07:27.536Z,24.35
2022-08-23T11:08:27.541Z,24.39
2022-08-23T11:09:27.538Z,24.35
2022-08-23T11:10:27.538Z,24.47
2022-08-23T11:11:27.539Z,24.40
2022-08-23T11:12:27.541Z,24.45
2022-08-23T11:13:27.542Z,24.58
2022-08-23T11:14:27.540Z,24.70
2022-08-23T11:15:27.587Z,24.61
2022-08-23T11:16:27.543Z,24.61
2022-08-23T11:17:27.545Z,24.65
2022-08-23T11:18:31.302Z,24.68
2022-08-23T11:19:27.544Z,24.63
2022-08-23T11:20:27.547Z,24.65
2022-08-23T11:21:27.545Z,24.74
2022-08-23T11:22:27.543Z,24.80
2022-08-23T11:23:27.546Z,24.89
2022-08-23T11:24:27.548Z,24.80
2022-08-23T11:25:27.547Z,25.04
2022-08-23T11:26:27.549Z,24.99
2022-08-23T11:27:27.548Z,25.08
2022-08-23T11:28:30.420Z,25.28
2022-08-23T11:29:27.548Z,25.35
2022-08-23T11:30:27.553Z,25.43
2022-08-23T11:31:27.567Z,25.48
2022-08-23T11:32:29.965Z,25.33
2022-08-23T11:33:27.553Z,25.38
2022-08-23T11:34:29.478Z,25.33
2022-08-23T11:35:27.550Z,25.18
2022-08-23T11:36:27.555Z,25.14
2022-08-23T11:37:27.554Z,25.31
2022-08-23T11:38:27.556Z,25.38
2022-08-23T11:39:27.552Z,25.47
2022-08-23T11:40:28.514Z,25.54
2022-08-23T11:41:27.556Z,25.53
2022-08-23T11:42:27.556Z,25.46
2022-08-23T11:43:27.557Z,25.41
2022-08-23T11:44:27.561Z,25.51
2022-08-23T11:45:27.559Z,25.36
2022-08-23T11:46:27.618Z,25.25
2022-08-23T11:47:27.558Z,25.21
2022-08-23T11:48:27.561Z,25.04
2022-08-23T11:49:27.559Z,25.07
2022-08-23T11:50:27.602Z,25.01
2022-08-23T11:51:27.559Z,25.16
2022-08-23T11:52:27.563Z,25.13
2022-08-23T11:53:27.565Z,24.88
2022-08-23T11:54:27.588Z,24.85
2022-08-23T11:55:27.566Z,24.92
2022-08-23T11:56:27.570Z,25.11
2022-08-23T11:57:28.188Z,25.18
2022-08-23T11:58:27.567Z,25.08
2022-08-23T11:59:27.569Z,25.26
2022-08-23T12:00:28.959Z,25.33
2022-08-23T12:01:27.573Z,25.47
2022-08-23T12:02:27.644Z,25.55
2022-08-23T12:03:27.682Z,25.78
2022-08-23T12:04:27.571Z,25.62
2022-08-23T12:05:27.586Z,25.50
2022-08-23T12:06:27.571Z,25.60
2022-08-23T12:07:27.572Z,25.83
2022-08-23T12:08:27.572Z,25.88
2022-08-23T12:09:27.575Z,25.99
2022-08-23T12:10:27.575Z,25.95
2022-08-23T12:11:27.575Z,26.19
2022-08-23T12:12:27.578Z,25.91
2022-08-23T12:13:27.579Z,25.83
2022-08-23T12:14:27.578Z,25.62
2022-08-23T12:15:27.605Z,25.69
2022-08-23T12:16:28.883Z,25.84
2022-08-23T12:17:28.710Z,25.80
2022-08-23T12:18:27.582Z,25.62
2022-08-23T12:19:27.582Z,25.59
2022-08-23T12:20:27.579Z,25.63
2022-08-23T12:21:27.588Z,25.65
2022-08-23T12:22:28.694Z,25.50
2022-08-23T12:23:27.585Z,25.43
2022-08-23T12:24:27.587Z,25.55
2022-08-23T12:25:27.586Z,25.50
2022-08-23T12:26:28.523Z,25.54
2022-08-23T12:27:27.591Z,25.55
2022-08-23T12:28:27.590Z,25.51
2022-08-23T12:29:27.593Z,25.46
2022-08-23T12:30:27.590Z,25.47
2022-08-23T12:31:27.648Z,25.38
2022-08-23T12:32:30.381Z,25.16
2022-08-23T12:33:27.598Z,25.10
2022-08-23T12:34:27.596Z,24.92
2022-08-23T12:35:27.600Z,24.98
2022-08-23T12:36:27.597Z,24.99
2022-08-23T12:37:27.599Z,24.98
2022-08-23T12:38:27.600Z,24.92
2022-08-23T12:39:27.597Z,24.85
2022-08-23T12:40:27.601Z,24.91
2022-08-23T12:41:27.600Z,25.06
2022-08-23T12:42:27.602Z,25.17
2022-08-23T12:43:27.604Z,25.50
2022-08-23T12:44:27.602Z,25.33
2022-08-23T12:45:27.606Z,25.41
2022-08-23T12:46:27.666Z,25.62
2022-08-23T12:47:27.607Z,25.73
2022-08-23T12:48:27.608Z,25.78
2022-08-23T12:49:27.611Z,25.90
2022-08-23T12:50:32.726Z,25.65
2022-08-23T12:51:27.609Z,25.72
2022-08-23T12:52:27.611Z,25.51
2022-08-23T12:53:27.614Z,25.50
2022-08-23T12:54:27.613Z,25.43
2022-08-23T12:55:27.611Z,25.25
2022-08-23T12:56:31.851Z,25.31
2022-08-23T12:57:27.689Z,25.33
2022-08-23T12:58:31.526Z,25.41
2022-08-23T12:59:27.616Z,25.59
2022-08-23T13:00:27.619Z,25.54